sensor_id;sensor_type;location;lat;lon;timestamp;pressure;altitude;pressure_sealevel;temperature;humidity
54816;BME280;40715;55.752;37.884;2023-12-28T00:02:06;97996.47;;;29.81;19.79
54816;BME280;40715;55.752;37.884;2023-12-28T00:04:33;97998.16;;;29.82;19.68
54816;BME280;40715;55.752;37.884;2023-12-28T00:07:02;97996.66;;;29.79;19.33
54816;BME280;40715;55.752;37.884;2023-12-28T00:09:29;98002.72;;;29.81;19.44
54816;BME280;40715;55.752;37.884;2023-12-28T00:11:56;97996.66;;;29.79;19.46
54816;BME280;40715;55.752;37.884;2023-12-28T00:14:23;98001.69;;;29.82;19.50
54816;BME280;40715;55.752;37.884;2023-12-28T00:16:50;98002.50;;;29.83;19.78
54816;BME280;40715;55.752;37.884;2023-12-28T00:19:17;98002.72;;;29.81;19.77
54816;BME280;40715;55.752;37.884;2023-12-28T00:21:46;98013.78;;;29.79;19.64
54816;BME280;40715;55.752;37.884;2023-12-28T00:24:15;98015.66;;;29.79;19.66
54816;BME280;40715;55.752;37.884;2023-12-28T00:26:42;98014.63;;;29.80;19.47
54816;BME280;40715;55.752;37.884;2023-12-28T00:29:09;98022.78;;;29.80;19.65
54816;BME280;40715;55.752;37.884;2023-12-28T00:31:37;98020.06;;;29.80;19.80
54816;BME280;40715;55.752;37.884;2023-12-28T00:34:04;98026.13;;;29.82;19.59
54816;BME280;40715;55.752;37.884;2023-12-28T00:36:31;98024.44;;;29.81;19.60
54816;BME280;40715;55.752;37.884;2023-12-28T00:38:59;98031.75;;;29.81;19.59
54816;BME280;40715;55.752;37.884;2023-12-28T00:41:25;98028.19;;;29.80;19.46
54816;BME280;40715;55.752;37.884;2023-12-28T00:43:52;98034.47;;;29.81;19.42
54816;BME280;40715;55.752;37.884;2023-12-28T00:46:19;98034.47;;;29.81;19.72
54816;BME280;40715;55.752;37.884;2023-12-28T00:48:46;98033.63;;;29.80;19.55
54816;BME280;40715;55.752;37.884;2023-12-28T00:51:14;98038.00;;;29.81;19.76
54816;BME280;40715;55.752;37.884;2023-12-28T00:53:40;98029.84;;;29.81;19.59
54816;BME280;40715;55.752;37.884;2023-12-28T00:56:09;98037.38;;;29.79;19.61
54816;BME280;40715;55.752;37.884;2023-12-28T00:58:39;98026.72;;;29.77;19.57
54816;BME280;40715;55.752;37.884;2023-12-28T01:01:07;98042.41;;;29.82;19.54
54816;BME280;40715;55.752;37.884;2023-12-28T01:03:34;98045.13;;;29.82;19.57
54816;BME280;40715;55.752;37.884;2023-12-28T01:06:01;98047.38;;;29.78;19.58
54816;BME280;40715;55.752;37.884;2023-12-28T01:08:28;98050.94;;;29.79;19.65
54816;BME280;40715;55.752;37.884;2023-12-28T01:10:55;98049.25;;;29.78;19.48
54816;BME280;40715;55.752;37.884;2023-12-28T01:13:22;98059.09;;;29.79;19.58
54816;BME280;40715;55.752;37.884;2023-12-28T01:15:49;98053.47;;;29.81;19.72
54816;BME280;40715;55.752;37.884;2023-12-28T01:18:16;98055.50;;;29.78;19.62
54816;BME280;40715;55.752;37.884;2023-12-28T01:20:43;98055.34;;;29.80;19.60
54816;BME280;40715;55.752;37.884;2023-12-28T01:23:10;98057.19;;;29.79;19.66
54816;BME280;40715;55.752;37.884;2023-12-28T01:25:37;98062.44;;;29.81;19.47
54816;BME280;40715;55.752;37.884;2023-12-28T01:28:04;98059.72;;;29.81;19.42
54816;BME280;40715;55.752;37.884;2023-12-28T01:30:31;98065.34;;;29.79;19.54
54816;BME280;40715;55.752;37.884;2023-12-28T01:32:58;98061.59;;;29.81;19.63
54816;BME280;40715;55.752;37.884;2023-12-28T01:35:25;98066.84;;;29.82;19.39
54816;BME280;40715;55.752;37.884;2023-12-28T01:37:52;98063.50;;;29.80;19.71
54816;BME280;40715;55.752;37.884;2023-12-28T01:40:19;98073.50;;;29.79;19.46
54816;BME280;40715;55.752;37.884;2023-12-28T01:42:46;98073.28;;;29.81;19.48
54816;BME280;40715;55.752;37.884;2023-12-28T01:45:13;98068.25;;;29.78;19.44
54816;BME280;40715;55.752;37.884;2023-12-28T01:47:40;98064.72;;;29.77;19.53
54816;BME280;40715;55.752;37.884;2023-12-28T01:50:07;98062.81;;;29.78;19.44
54816;BME280;40715;55.752;37.884;2023-12-28T01:52:35;98066.38;;;29.78;19.67
54816;BME280;40715;55.752;37.884;2023-12-28T01:55:02;98078.09;;;29.79;19.37
54816;BME280;40715;55.752;37.884;2023-12-28T01:57:30;98077.22;;;29.78;19.53
54816;BME280;40715;55.752;37.884;2023-12-28T01:59:57;98075.38;;;29.79;19.40
54816;BME280;40715;55.752;37.884;2023-12-28T02:02:31;98076.41;;;29.78;19.57
54816;BME280;40715;55.752;37.884;2023-12-28T02:04:59;98077.22;;;29.78;19.66
54816;BME280;40715;55.752;37.884;2023-12-28T02:07:27;98087.06;;;29.79;19.52
54816;BME280;40715;55.752;37.884;2023-12-28T02:09:54;98088.75;;;29.81;19.73
54816;BME280;40715;55.752;37.884;2023-12-28T02:12:21;98091.66;;;29.79;19.58
54816;BME280;40715;55.752;37.884;2023-12-28T02:14:48;98094.38;;;29.79;19.60
54816;BME280;40715;55.752;37.884;2023-12-28T02:17:22;98097.09;;;29.79;19.81
54816;BME280;40715;55.752;37.884;2023-12-28T02:19:50;98095.19;;;29.79;19.38
54816;BME280;40715;55.752;37.884;2023-12-28T02:22:18;98096.88;;;29.81;19.50
54816;BME280;40715;55.752;37.884;2023-12-28T02:27:30;98102.53;;;29.79;19.59
54816;BME280;40715;55.752;37.884;2023-12-28T02:29:58;98105.03;;;29.81;19.32
54816;BME280;40715;55.752;37.884;2023-12-28T02:35:13;98106.91;;;29.80;19.59
54816;BME280;40715;55.752;37.884;2023-12-28T02:37:42;98105.88;;;29.81;19.41
54816;BME280;40715;55.752;37.884;2023-12-28T02:40:12;98110.00;;;29.77;19.42
54816;BME280;40715;55.752;37.884;2023-12-28T02:42:41;98101.41;;;29.73;19.65
54816;BME280;40715;55.752;37.884;2023-12-28T02:45:09;98115.63;;;29.75;19.69
54816;BME280;40715;55.752;37.884;2023-12-28T02:47:36;98117.94;;;29.78;19.55
54816;BME280;40715;55.752;37.884;2023-12-28T02:50:03;98120.50;;;29.80;19.59
54816;BME280;40715;55.752;37.884;2023-12-28T02:52:30;98124.22;;;29.79;19.66
54816;BME280;40715;55.752;37.884;2023-12-28T02:54:57;98114.19;;;29.79;19.58
54816;BME280;40715;55.752;37.884;2023-12-28T02:57:24;98120.66;;;29.78;19.64
54816;BME280;40715;55.752;37.884;2023-12-28T02:59:51;98107.94;;;29.79;19.27
54816;BME280;40715;55.752;37.884;2023-12-28T03:02:18;98113.38;;;29.79;19.42
54816;BME280;40715;55.752;37.884;2023-12-28T03:04:45;98118.81;;;29.79;19.40
54816;BME280;40715;55.752;37.884;2023-12-28T03:07:12;98122.34;;;29.79;19.68
54816;BME280;40715;55.752;37.884;2023-12-28T03:09:39;98127.97;;;29.78;19.78
54816;BME280;40715;55.752;37.884;2023-12-28T03:12:06;98128.81;;;29.78;19.55
54816;BME280;40715;55.752;37.884;2023-12-28T03:14:33;98126.09;;;29.78;19.44
54816;BME280;40715;55.752;37.884;2023-12-28T03:17:00;98127.78;;;29.79;19.28
54816;BME280;40715;55.752;37.884;2023-12-28T03:19:27;98134.88;;;29.81;19.41
54816;BME280;40715;55.752;37.884;2023-12-28T03:21:54;98137.59;;;29.81;19.60
54816;BME280;40715;55.752;37.884;2023-12-28T03:24:21;98141.16;;;29.81;19.53
54816;BME280;40715;55.752;37.884;2023-12-28T03:26:48;98143.88;;;29.81;19.78
54816;BME280;40715;55.752;37.884;2023-12-28T03:29:15;98147.63;;;29.80;19.58
54816;BME280;40715;55.752;37.884;2023-12-28T03:31:42;98143.22;;;29.79;19.31
54816;BME280;40715;55.752;37.884;2023-12-28T03:34:09;98144.06;;;29.79;19.68
54816;BME280;40715;55.752;37.884;2023-12-28T03:36:36;98145.75;;;29.81;19.73
54816;BME280;40715;55.752;37.884;2023-12-28T03:39:03;98150.16;;;29.82;19.44
54816;BME280;40715;55.752;37.884;2023-12-28T03:41:31;98149.28;;;29.81;19.66
54816;BME280;40715;55.752;37.884;2023-12-28T03:43:58;98148.66;;;29.79;19.22
54816;BME280;40715;55.752;37.884;2023-12-28T03:46:25;98142.22;;;29.80;19.37
54816;BME280;40715;55.752;37.884;2023-12-28T03:48:53;98145.94;;;29.79;19.57
54816;BME280;40715;55.752;37.884;2023-12-28T03:51:21;98144.91;;;29.80;19.53
54816;BME280;40715;55.752;37.884;2023-12-28T03:53:48;98142.22;;;29.80;19.50
54816;BME280;40715;55.752;37.884;2023-12-28T03:56:25;98160.34;;;29.79;19.75
54816;BME280;40715;55.752;37.884;2023-12-28T03:58:53;98163.06;;;29.79;19.64
54816;BME280;40715;55.752;37.884;2023-12-28T04:01:22;98163.25;;;29.78;19.48
54816;BME280;40715;55.752;37.884;2023-12-28T04:03:50;98158.66;;;29.78;19.38
54816;BME280;40715;55.752;37.884;2023-12-28T04:06:17;98153.91;;;29.81;19.61
54816;BME280;40715;55.752;37.884;2023-12-28T04:08:44;98157.00;;;29.77;19.45
54816;BME280;40715;55.752;37.884;2023-12-28T04:11:11;98149.28;;;29.81;19.28
54816;BME280;40715;55.752;37.884;2023-12-28T04:13:38;98156.81;;;29.79;19.51
54816;BME280;40715;55.752;37.884;2023-12-28T04:16:06;98167.66;;;29.79;19.44
54816;BME280;40715;55.752;37.884;2023-12-28T04:18:33;98164.09;;;29.78;19.20
54816;BME280;40715;55.752;37.884;2023-12-28T04:21:00;98170.56;;;29.77;19.58
54816;BME280;40715;55.752;37.884;2023-12-28T04:23:27;98166.81;;;29.78;19.31
54816;BME280;40715;55.752;37.884;2023-12-28T04:25:53;98180.22;;;29.80;19.35
54816;BME280;40715;55.752;37.884;2023-12-28T04:28:20;98173.09;;;29.79;19.72
54816;BME280;40715;55.752;37.884;2023-12-28T04:30:47;98176.00;;;29.77;19.42
54816;BME280;40715;55.752;37.884;2023-12-28T04:33:17;98184.34;;;29.76;19.61
54816;BME280;40715;55.752;37.884;2023-12-28T04:35:45;98183.28;;;29.77;19.51
54816;BME280;40715;55.752;37.884;2023-12-28T04:38:11;98182.44;;;29.76;19.66
54816;BME280;40715;55.752;37.884;2023-12-28T04:40:38;98187.88;;;29.76;19.34
54816;BME280;40715;55.752;37.884;2023-12-28T04:43:05;98183.09;;;29.78;19.19
54816;BME280;40715;55.752;37.884;2023-12-28T04:45:32;98184.97;;;29.78;19.62
54816;BME280;40715;55.752;37.884;2023-12-28T04:47:59;98181.22;;;29.79;19.22
54816;BME280;40715;55.752;37.884;2023-12-28T04:50:26;98186.66;;;29.79;19.31
54816;BME280;40715;55.752;37.884;2023-12-28T04:52:53;98192.28;;;29.77;19.64
54816;BME280;40715;55.752;37.884;2023-12-28T04:55:20;98193.94;;;29.78;19.27
54816;BME280;40715;55.752;37.884;2023-12-28T04:57:47;98188.50;;;29.78;19.57
54816;BME280;40715;55.752;37.884;2023-12-28T05:00:14;98190.41;;;29.78;19.19
54816;BME280;40715;55.752;37.884;2023-12-28T05:02:41;98197.72;;;29.77;19.49
54816;BME280;40715;55.752;37.884;2023-12-28T05:05:11;98196.03;;;29.76;19.51
54816;BME280;40715;55.752;37.884;2023-12-28T05:07:38;98195.00;;;29.77;19.46
54816;BME280;40715;55.752;37.884;2023-12-28T05:10:05;98198.53;;;29.78;19.67
54816;BME280;40715;55.752;37.884;2023-12-28T05:12:32;98200.44;;;29.77;19.27
54816;BME280;40715;55.752;37.884;2023-12-28T05:15:08;98200.25;;;29.79;19.44
54816;BME280;40715;55.752;37.884;2023-12-28T05:17:35;98198.75;;;29.76;19.49
54816;BME280;40715;55.752;37.884;2023-12-28T05:20:03;98201.44;;;29.76;19.56
54816;BME280;40715;55.752;37.884;2023-12-28T05:22:31;98209.59;;;29.76;19.51
54816;BME280;40715;55.752;37.884;2023-12-28T05:24:58;98207.53;;;29.78;19.34
54816;BME280;40715;55.752;37.884;2023-12-28T05:27:25;98213.13;;;29.77;19.46
54816;BME280;40715;55.752;37.884;2023-12-28T05:29:52;98208.56;;;29.77;19.23
54816;BME280;40715;55.752;37.884;2023-12-28T05:32:19;98213.34;;;29.75;19.45
54816;BME280;40715;55.752;37.884;2023-12-28T05:34:46;98217.75;;;29.76;19.47
54816;BME280;40715;55.752;37.884;2023-12-28T05:37:14;98215.84;;;29.77;19.45
54816;BME280;40715;55.752;37.884;2023-12-28T05:39:41;98228.59;;;29.76;19.55
54816;BME280;40715;55.752;37.884;2023-12-28T05:42:08;98221.28;;;29.77;19.26
54816;BME280;40715;55.752;37.884;2023-12-28T05:44:35;98239.25;;;29.78;19.51
54816;BME280;40715;55.752;37.884;2023-12-28T05:47:02;98231.13;;;29.78;19.65
54816;BME280;40715;55.752;37.884;2023-12-28T05:49:30;98237.38;;;29.78;19.35
54816;BME280;40715;55.752;37.884;2023-12-28T05:51:57;98237.22;;;29.80;19.31
54816;BME280;40715;55.752;37.884;2023-12-28T05:54:24;98231.78;;;29.80;19.34
54816;BME280;40715;55.752;37.884;2023-12-28T05:56:52;98244.31;;;29.81;19.41
54816;BME280;40715;55.752;37.884;2023-12-28T05:59:19;98240.94;;;29.79;19.46
54816;BME280;40715;55.752;37.884;2023-12-28T06:01:48;98249.72;;;29.81;19.40
54816;BME280;40715;55.752;37.884;2023-12-28T06:04:15;98251.63;;;29.81;19.27
54816;BME280;40715;55.752;37.884;2023-12-28T06:06:42;98249.72;;;29.81;19.55
54816;BME280;40715;55.752;37.884;2023-12-28T06:09:09;98254.53;;;29.79;19.51
54816;BME280;40715;55.752;37.884;2023-12-28T06:11:36;98260.59;;;29.81;19.17
54816;BME280;40715;55.752;37.884;2023-12-28T06:14:03;98263.50;;;29.79;19.48
54816;BME280;40715;55.752;37.884;2023-12-28T06:16:29;98260.16;;;29.77;19.45
54816;BME280;40715;55.752;37.884;2023-12-28T06:18:59;98268.94;;;29.79;19.42
54816;BME280;40715;55.752;37.884;2023-12-28T06:21:27;98276.44;;;29.77;19.35
54816;BME280;40715;55.752;37.884;2023-12-28T06:23:56;98281.66;;;29.79;19.18
54816;BME280;40715;55.752;37.884;2023-12-28T06:26:22;98287.94;;;29.79;19.57
54816;BME280;40715;55.752;37.884;2023-12-28T06:28:49;98298.78;;;29.79;19.48
54816;BME280;40715;55.752;37.884;2023-12-28T06:31:16;98306.09;;;29.79;19.59
54816;BME280;40715;55.752;37.884;2023-12-28T06:33:43;98298.78;;;29.79;19.42
54816;BME280;40715;55.752;37.884;2023-12-28T06:36:12;98305.06;;;29.80;19.46
54816;BME280;40715;55.752;37.884;2023-12-28T06:38:39;98302.38;;;29.80;19.25
54816;BME280;40715;55.752;37.884;2023-12-28T06:41:12;98310.31;;;29.82;19.39
54816;BME280;40715;55.752;37.884;2023-12-28T06:43:39;98317.78;;;29.79;19.39
54816;BME280;40715;55.752;37.884;2023-12-28T06:46:06;98313.84;;;29.82;19.34
54816;BME280;40715;55.752;37.884;2023-12-28T06:48:34;98313.22;;;29.80;19.32
54816;BME280;40715;55.752;37.884;2023-12-28T06:51:01;98326.59;;;29.82;19.21
54816;BME280;40715;55.752;37.884;2023-12-28T06:53:28;98321.38;;;29.80;19.26
54816;BME280;40715;55.752;37.884;2023-12-28T06:55:55;98334.06;;;29.79;19.29
54816;BME280;40715;55.752;37.884;2023-12-28T06:58:22;98327.44;;;29.82;19.43
54816;BME280;40715;55.752;37.884;2023-12-28T07:00:49;98326.59;;;29.82;19.22
54816;BME280;40715;55.752;37.884;2023-12-28T07:03:16;98334.59;;;29.83;19.40
54816;BME280;40715;55.752;37.884;2023-12-28T07:05:43;98347.47;;;29.81;19.45
54816;BME280;40715;55.752;37.884;2023-12-28T07:08:10;98351.88;;;29.82;19.14
54816;BME280;40715;55.752;37.884;2023-12-28T07:10:37;98353.59;;;29.83;19.46
54816;BME280;40715;55.752;37.884;2023-12-28T07:13:04;98349.16;;;29.82;19.52
54816;BME280;40715;55.752;37.884;2023-12-28T07:15:31;98363.56;;;29.83;19.07
54816;BME280;40715;55.752;37.884;2023-12-28T07:17:58;98360.47;;;29.86;19.27
54816;BME280;40715;55.752;37.884;2023-12-28T07:20:25;98353.41;;;29.85;19.38
54816;BME280;40715;55.752;37.884;2023-12-28T07:22:52;98351.88;;;29.82;19.15
54816;BME280;40715;55.752;37.884;2023-12-28T07:25:20;98370.50;;;29.85;19.12
54816;BME280;40715;55.752;37.884;2023-12-28T07:27:48;98354.41;;;29.84;19.32
54816;BME280;40715;55.752;37.884;2023-12-28T07:30:15;98365.28;;;29.84;19.16
54816;BME280;40715;55.752;37.884;2023-12-28T07:32:43;98370.72;;;29.84;19.28
54816;BME280;40715;55.752;37.884;2023-12-28T07:35:12;98374.25;;;29.84;19.20
54816;BME280;40715;55.752;37.884;2023-12-28T07:37:39;98374.25;;;29.84;19.25
54816;BME280;40715;55.752;37.884;2023-12-28T07:40:06;98378.84;;;29.84;19.43
54816;BME280;40715;55.752;37.884;2023-12-28T07:42:33;98379.69;;;29.84;19.30
54816;BME280;40715;55.752;37.884;2023-12-28T07:45:01;98380.53;;;29.85;19.23
54816;BME280;40715;55.752;37.884;2023-12-28T07:47:30;98381.38;;;29.85;19.11
54816;BME280;40715;55.752;37.884;2023-12-28T07:49:57;98381.38;;;29.85;19.13
54816;BME280;40715;55.752;37.884;2023-12-28T07:52:24;98379.50;;;29.86;19.11
54816;BME280;40715;55.752;37.884;2023-12-28T07:54:51;98383.72;;;29.88;19.36
54816;BME280;40715;55.752;37.884;2023-12-28T07:57:18;98382.88;;;29.88;19.30
54816;BME280;40715;55.752;37.884;2023-12-28T07:59:45;98391.84;;;29.88;19.18
54816;BME280;40715;55.752;37.884;2023-12-28T08:02:12;98390.19;;;29.87;19.19
54816;BME280;40715;55.752;37.884;2023-12-28T08:04:39;98398.34;;;29.87;19.05
54816;BME280;40715;55.752;37.884;2023-12-28T08:07:06;98399.34;;;29.86;19.05
54816;BME280;40715;55.752;37.884;2023-12-28T08:09:33;98405.63;;;29.87;19.19
54816;BME280;40715;55.752;37.884;2023-12-28T08:12:02;98406.81;;;29.84;19.19
54816;BME280;40715;55.752;37.884;2023-12-28T08:14:29;98403.28;;;29.84;19.11
54816;BME280;40715;55.752;37.884;2023-12-28T08:16:56;98408.72;;;29.84;19.12
54816;BME280;40715;55.752;37.884;2023-12-28T08:19:23;98414.78;;;29.86;19.17
54816;BME280;40715;55.752;37.884;2023-12-28T08:21:50;98403.56;;;29.89;19.15
54816;BME280;40715;55.752;37.884;2023-12-28T08:24:17;98398.00;;;29.82;19.18
54816;BME280;40715;55.752;37.884;2023-12-28T08:26:44;98412.75;;;29.88;19.05
54816;BME280;40715;55.752;37.884;2023-12-28T08:29:11;98415.06;;;29.91;19.23
54816;BME280;40715;55.752;37.884;2023-12-28T08:31:38;98405.03;;;29.91;19.29
54816;BME280;40715;55.752;37.884;2023-12-28T08:34:05;98418.25;;;29.94;19.01
54816;BME280;40715;55.752;37.884;2023-12-28T08:36:32;98411.16;;;29.93;18.96
54816;BME280;40715;55.752;37.884;2023-12-28T08:38:59;98420.78;;;29.96;19.14
54816;BME280;40715;55.752;37.884;2023-12-28T08:41:26;98416.38;;;29.95;19.07
54816;BME280;40715;55.752;37.884;2023-12-28T08:43:53;98421.34;;;29.91;18.93
54816;BME280;40715;55.752;37.884;2023-12-28T08:46:23;98422.19;;;29.92;18.95
54816;BME280;40715;55.752;37.884;2023-12-28T08:48:51;98437.28;;;29.94;18.85
54816;BME280;40715;55.752;37.884;2023-12-28T08:51:19;98425.56;;;29.94;19.11
54816;BME280;40715;55.752;37.884;2023-12-28T08:53:47;98430.34;;;29.92;18.90
54816;BME280;40715;55.752;37.884;2023-12-28T08:56:19;98429.66;;;29.90;18.91
54816;BME280;40715;55.752;37.884;2023-12-28T08:58:47;98433.25;;;29.90;19.04
54816;BME280;40715;55.752;37.884;2023-12-28T09:01:18;98435.09;;;29.90;19.13
54816;BME280;40715;55.752;37.884;2023-12-28T09:03:45;98431.38;;;29.91;18.99
54816;BME280;40715;55.752;37.884;2023-12-28T09:06:12;98439.50;;;29.91;18.72
54816;BME280;40715;55.752;37.884;2023-12-28T09:08:45;98442.59;;;29.88;19.13
54816;BME280;40715;55.752;37.884;2023-12-28T09:11:13;98450.56;;;29.89;19.17
54816;BME280;40715;55.752;37.884;2023-12-28T09:13:41;98450.94;;;29.86;19.11
54816;BME280;40715;55.752;37.884;2023-12-28T09:16:10;98457.88;;;29.89;18.90
54816;BME280;40715;55.752;37.884;2023-12-28T09:18:38;98452.63;;;29.87;18.79
54816;BME280;40715;55.752;37.884;2023-12-28T09:21:07;98452.44;;;29.89;19.06
54816;BME280;40715;55.752;37.884;2023-12-28T09:23:35;98458.91;;;29.88;18.96
54816;BME280;40715;55.752;37.884;2023-12-28T09:26:03;98453.66;;;29.86;19.36
54816;BME280;40715;55.752;37.884;2023-12-28T09:28:34;98441.09;;;29.85;19.27
54816;BME280;40715;55.752;37.884;2023-12-28T09:31:01;98447.34;;;29.86;19.12
54816;BME280;40715;55.752;37.884;2023-12-28T09:33:29;98449.06;;;29.87;18.98
54816;BME280;40715;55.752;37.884;2023-12-28T09:35:56;98447.19;;;29.87;19.13
54816;BME280;40715;55.752;37.884;2023-12-28T09:38:23;98459.09;;;29.86;18.90
54816;BME280;40715;55.752;37.884;2023-12-28T09:40:52;98452.78;;;29.86;18.86
54816;BME280;40715;55.752;37.884;2023-12-28T09:43:24;98462.44;;;29.88;19.03
54816;BME280;40715;55.752;37.884;2023-12-28T09:45:54;98465.34;;;29.87;19.06
54816;BME280;40715;55.752;37.884;2023-12-28T09:48:22;98471.16;;;29.84;19.04
54816;BME280;40715;55.752;37.884;2023-12-28T09:50:54;98462.44;;;29.88;19.03
54816;BME280;40715;55.752;37.884;2023-12-28T09:53:22;98475.19;;;29.88;19.07
54816;BME280;40715;55.752;37.884;2023-12-28T09:55:50;98463.50;;;29.87;19.09
54816;BME280;40715;55.752;37.884;2023-12-28T09:58:21;98470.59;;;29.88;18.77
54816;BME280;40715;55.752;37.884;2023-12-28T10:00:49;98471.97;;;29.84;19.13
54816;BME280;40715;55.752;37.884;2023-12-28T10:03:17;98473.88;;;29.84;19.03
54816;BME280;40715;55.752;37.884;2023-12-28T10:05:45;98480.44;;;29.89;19.13
54816;BME280;40715;55.752;37.884;2023-12-28T10:08:14;98478.09;;;29.86;18.90
54816;BME280;40715;55.752;37.884;2023-12-28T10:10:42;98480.63;;;29.88;18.91
54816;BME280;40715;55.752;37.884;2023-12-28T10:13:10;98474.34;;;29.87;18.61
54816;BME280;40715;55.752;37.884;2023-12-28T10:15:38;98490.25;;;29.90;18.99
54816;BME280;40715;55.752;37.884;2023-12-28T10:18:05;98489.06;;;29.93;18.97
54816;BME280;40715;55.752;37.884;2023-12-28T10:20:33;98483.63;;;29.93;18.63
54816;BME280;40715;55.752;37.884;2023-12-28T10:23:00;98476.50;;;29.92;19.00
54816;BME280;40715;55.752;37.884;2023-12-28T10:25:28;98474.63;;;29.92;18.71
54816;BME280;40715;55.752;37.884;2023-12-28T10:27:55;98476.31;;;29.93;19.17
54816;BME280;40715;55.752;37.884;2023-12-28T10:30:23;98473.78;;;29.92;18.63
54816;BME280;40715;55.752;37.884;2023-12-28T10:32:50;98473.78;;;29.92;18.95
54816;BME280;40715;55.752;37.884;2023-12-28T10:35:17;98475.63;;;29.91;19.00
54816;BME280;40715;55.752;37.884;2023-12-28T10:37:44;98469.38;;;29.91;18.69
54816;BME280;40715;55.752;37.884;2023-12-28T10:40:15;98476.50;;;29.92;18.98
54816;BME280;40715;55.752;37.884;2023-12-28T10:43:03;98478.94;;;30.02;19.07
54816;BME280;40715;55.752;37.884;2023-12-28T10:45:33;98477.31;;;29.92;18.64
54816;BME280;40715;55.752;37.884;2023-12-28T10:50:41;98470.22;;;29.91;18.95
54816;BME280;40715;55.752;37.884;2023-12-28T10:53:37;98480.78;;;30.01;18.94
54816;BME280;40715;55.752;37.884;2023-12-28T10:58:58;98489.88;;;29.93;18.72
54816;BME280;40715;55.752;37.884;2023-12-28T11:01:32;98482.94;;;29.91;18.84
54816;BME280;40715;55.752;37.884;2023-12-28T11:06:38;98490.06;;;29.92;18.89
54816;BME280;40715;55.752;37.884;2023-12-28T11:09:06;98482.66;;;29.86;18.73
54816;BME280;40715;55.752;37.884;2023-12-28T11:11:37;98487.75;;;29.89;18.85
54816;BME280;40715;55.752;37.884;2023-12-28T11:14:05;98486.22;;;29.86;19.04
54816;BME280;40715;55.752;37.884;2023-12-28T11:16:33;98489.78;;;29.87;18.93
54816;BME280;40715;55.752;37.884;2023-12-28T11:19:01;98480.63;;;29.88;18.72
54816;BME280;40715;55.752;37.884;2023-12-28T11:21:29;98490.63;;;29.87;18.87
54816;BME280;40715;55.752;37.884;2023-12-28T11:23:57;98491.47;;;29.88;19.01
54816;BME280;40715;55.752;37.884;2023-12-28T11:26:24;98489.41;;;29.90;18.97
54816;BME280;40715;55.752;37.884;2023-12-28T11:29:03;98483.97;;;29.90;18.78
54816;BME280;40715;55.752;37.884;2023-12-28T11:31:34;98484.34;;;29.87;19.01
54816;BME280;40715;55.752;37.884;2023-12-28T11:34:04;98487.59;;;29.82;19.15
54816;BME280;40715;55.752;37.884;2023-12-28T11:39:02;98485.72;;;29.83;18.98
54816;BME280;40715;55.752;37.884;2023-12-28T11:41:31;98489.97;;;29.85;18.87
54816;BME280;40715;55.752;37.884;2023-12-28T11:44:03;98495.59;;;29.84;18.78
54816;BME280;40715;55.752;37.884;2023-12-28T11:46:32;98492.88;;;29.84;18.95
54816;BME280;40715;55.752;37.884;2023-12-28T11:49:04;98493.84;;;29.83;18.98
54816;BME280;40715;55.752;37.884;2023-12-28T11:51:32;98493.84;;;29.83;18.85
54816;BME280;40715;55.752;37.884;2023-12-28T11:54:01;98500.19;;;29.83;18.76
54816;BME280;40715;55.752;37.884;2023-12-28T11:56:28;98501.00;;;29.84;19.11
54816;BME280;40715;55.752;37.884;2023-12-28T11:58:55;98498.47;;;29.82;18.73
54816;BME280;40715;55.752;37.884;2023-12-28T12:01:21;98503.06;;;29.82;18.76
54816;BME280;40715;55.752;37.884;2023-12-28T12:03:49;98509.31;;;29.82;19.10
54816;BME280;40715;55.752;37.884;2023-12-28T12:06:16;98506.59;;;29.82;18.80
54816;BME280;40715;55.752;37.884;2023-12-28T12:08:46;98510.72;;;29.78;18.88
54816;BME280;40715;55.752;37.884;2023-12-28T12:11:17;98499.03;;;29.77;19.00
54816;BME280;40715;55.752;37.884;2023-12-28T12:13:50;98513.44;;;29.78;18.82
54816;BME280;40715;55.752;37.884;2023-12-28T12:16:18;98511.38;;;29.80;19.05
54816;BME280;40715;55.752;37.884;2023-12-28T12:18:44;98525.13;;;29.78;18.82
54816;BME280;40715;55.752;37.884;2023-12-28T12:21:12;98521.56;;;29.78;18.95
54816;BME280;40715;55.752;37.884;2023-12-28T12:23:39;98532.63;;;29.76;18.76
54816;BME280;40715;55.752;37.884;2023-12-28T12:26:07;98519.22;;;29.75;18.80
54816;BME280;40715;55.752;37.884;2023-12-28T12:28:34;98521.94;;;29.75;18.77
54816;BME280;40715;55.752;37.884;2023-12-28T12:31:02;98529.06;;;29.76;18.86
54816;BME280;40715;55.752;37.884;2023-12-28T12:33:31;98521.13;;;29.74;19.14
54816;BME280;40715;55.752;37.884;2023-12-28T12:35:58;98528.41;;;29.74;19.01
54816;BME280;40715;55.752;37.884;2023-12-28T12:38:25;98535.34;;;29.76;19.00
54816;BME280;40715;55.752;37.884;2023-12-28T12:40:52;98530.72;;;29.77;18.82
54816;BME280;40715;55.752;37.884;2023-12-28T12:43:20;98527.38;;;29.75;18.82
54816;BME280;40715;55.752;37.884;2023-12-28T12:45:47;98528.19;;;29.75;18.94
54816;BME280;40715;55.752;37.884;2023-12-28T12:48:15;98535.69;;;29.73;18.82
54816;BME280;40715;55.752;37.884;2023-12-28T12:50:43;98546.56;;;29.73;18.81
54816;BME280;40715;55.752;37.884;2023-12-28T12:53:10;98541.78;;;29.75;18.73
54816;BME280;40715;55.752;37.884;2023-12-28T12:55:38;98540.94;;;29.75;18.96
54816;BME280;40715;55.752;37.884;2023-12-28T12:58:12;98551.81;;;29.75;18.79
54816;BME280;40715;55.752;37.884;2023-12-28T13:00:40;98558.06;;;29.75;18.97
54816;BME280;40715;55.752;37.884;2023-12-28T13:03:10;98555.53;;;29.74;19.10
54816;BME280;40715;55.752;37.884;2023-12-28T13:05:37;98558.25;;;29.74;18.69
54816;BME280;40715;55.752;37.884;2023-12-28T13:08:04;98564.53;;;29.74;18.88
54816;BME280;40715;55.752;37.884;2023-12-28T13:10:31;98565.38;;;29.75;18.92